ADDS METAR Data

Data at: 0211 UTC 24 Nov 2017

METAR for:KFOK (Westhampton/Gabreski, NY, US)
Text:KFOK 240153Z 00000KT 10SM CLR M03/M06 A3003 RMK AO2 SLP168 T10331061
Temperature: -3.3°C ( 26°F)
Dewpoint: -6.1°C ( 21°F) [RH = 81%]
Pressure (altimeter):30.03 inches Hg (1017.0 mb) [Sea level pressure: 1016.8 mb]
Winds:calm
Visibility:10 or more sm (16+ km)
Ceiling:at least 12,000 feet AGL
Clouds:sky clear below 12,000 feet AGL